Bandon, OR

12:20 PM PDT on August 31, 2015 (GMT -0700)
SW Bandon | | Change Station
CLOSE
Current Station
Personal Weather Station
Location: Bandon, OR
Elevation: 82 ft
Nearby Weather Stations

Elev 82 ft 43.12 °N, 124.43 °W | Updated 24 seconds ago

Clear
Clear
68.0 °F
Feels Like 68.0 °F
N
2.0
Wind Variable Wind from WNW
Gusts 2.0 mph

Today
High -- | Low -- °F
--% Chance of Precip.
Yesterday
High -- | Low -- °F
Precip. -- in
6:40 AM 7:54 PM
Waning Gibbous, 94% visible
Pressure 30.07 in
Visibility 10.0 miles
Clouds Clear
Dew Point 60 °F
Humidity 77%
Rainfall 0.00 in
Snow Depth Not available.
UV 8 out of 12
Pollen 3.10 out of 12
Air Quality Not available.
Flu Activity Not available.
METAR KOTH 311915Z 30007KT 10SM CLR 22/13 A3007 RMK AO1
Pressure 30.07 in
Visibility 10.0 miles
Clouds Clear
Dew Point 60 °F
Humidity 77%
Rainfall 0.00 in
Snow Depth Not available.
UV 8 out of 12
Pollen 3.10 out of 12
Air Quality Not available.
Flu Activity Not available.
METAR KOTH 311915Z 30007KT 10SM CLR 22/13 A3007 RMK AO1

10-Day Weather Forecast

×

Almanac

Astronomy

Aug. 31, 2015 Rise Set
Actual Time
Civil Twilight
Nautical Twilight
Astronomical Twilight
Moon
Length of Visible Light
Length of Day
Tomorrow will be .
, % of the Moon is Illuminated

Today's Extremes

State Highs State Lows

Community

WunderPhotos

Upload Photos

1,851,341 photos uploaded!

WunderBlogs® & News

Nearby

Air Quality

  Air Quality AQ Index Pollutant
Not available.

Snow Depth

Station Depth Elevation

Earthquake Activity

City Distance Mag. Time & Date
Minimum magnitude displayed is 2.5.

Coastal Water Temperatures

Place Temperature

Stations

Nearby Weather Stations

Station Location Temp. Windchill Dew Point Humidity Wind Precip. Elev Updated Type